Time;durP1;ratioP1;P1;durP2;ratioP2;P2;SDS_P1;SDS_P2;PMS_P1;PMS_P2;Temp;Humidity;BMP_temperature;BMP_pressure;BME280_temperature;BME280_humidity;BME280_pressure;Samples;Min_cycle;Max_cycle;Signal;HPM_P1;HPM_P2
2023/01/01 00:01:02;;;;;;;;;;;20.70;61.50;;;;;;1566742;75;722;-61
2023/01/01 00:03:03;;;;;;;;;;;20.70;61.60;;;;;;1554272;75;939;-61
2023/01/01 00:05:07;;;;;;;;;;;20.60;61.50;;;;;;1567921;74;1545;-62
2023/01/01 00:07:08;;;;;;;;;;;20.60;61.40;;;;;;1572109;74;808;-62
2023/01/01 00:11:30;;;;;;;;;;;20.60;61.50;;;;;;1559976;75;1918;-61
2023/01/01 00:13:32;;;;;;;;;;;20.70;61.50;;;;;;1566487;74;715;-62
2023/01/01 00:15:34;;;;;;;;;;;20.60;61.40;;;;;;1564803;75;741;-62
2023/01/01 00:17:36;;;;;;;;;;;20.70;61.50;;;;;;1564775;74;814;-62
2023/01/01 00:19:38;;;;;;;;;;;20.70;61.50;;;;;;1573950;74;1650;-62
2023/01/01 00:21:40;;;;;;;;;;;20.70;61.50;;;;;;1567458;74;816;-61
2023/01/01 00:23:42;;;;;;;;;;;20.60;61.40;;;;;;1570075;74;627;-62
2023/01/01 00:25:43;;;;;;;;;;;20.70;61.50;;;;;;1553410;75;745;-61
2023/01/01 00:27:45;;;;;;;;;;;20.60;61.40;;;;;;1572305;75;734;-62
2023/01/01 00:29:47;;;;;;;;;;;20.70;61.50;;;;;;1569789;74;1138;-62
2023/01/01 00:31:49;;;;;;;;;;;20.70;61.50;;;;;;1562684;74;1943;-62
2023/01/01 00:33:52;;;;;;;;;;;20.70;61.50;;;;;;1570163;74;1568;-62
2023/01/01 00:35:53;;;;;;;;;;;20.60;61.40;;;;;;1569725;74;720;-62
2023/01/01 00:37:55;;;;;;;;;;;20.60;61.30;;;;;;1566538;74;766;-61
2023/01/01 00:39:57;;;;;;;;;;;20.60;61.30;;;;;;1569318;75;1102;-61
2023/01/01 00:41:59;;;;;;;;;;;20.60;61.40;;;;;;1571357;74;754;-61
2023/01/01 00:44:01;;;;;;;;;;;20.60;61.40;;;;;;1571268;75;643;-62
2023/01/01 00:46:03;;;;;;;;;;;20.70;61.50;;;;;;1573852;74;809;-62
2023/01/01 00:48:05;;;;;;;;;;;20.60;61.40;;;;;;1561271;74;1620;-61
2023/01/01 00:50:07;;;;;;;;;;;20.60;61.30;;;;;;1567036;74;1115;-62
2023/01/01 00:52:09;;;;;;;;;;;20.60;61.30;;;;;;1558672;75;1943;-62
2023/01/01 00:54:12;;;;;;;;;;;20.60;61.30;;;;;;1564412;74;709;-62
2023/01/01 00:56:14;;;;;;;;;;;20.60;61.40;;;;;;1568789;74;733;-62
2023/01/01 00:58:16;;;;;;;;;;;20.60;61.30;;;;;;1561642;74;767;-62
2023/01/01 01:00:18;;;;;;;;;;;20.60;61.30;;;;;;1571456;74;1081;-62
2023/01/01 01:02:20;;;;;;;;;;;20.60;61.30;;;;;;1566262;74;1578;-62
2023/01/01 01:04:22;;;;;;;;;;;20.60;61.30;;;;;;1563006;74;726;-61
2023/01/01 01:06:23;;;;;;;;;;;20.60;61.30;;;;;;1563413;74;766;-62
2023/01/01 01:08:26;;;;;;;;;;;20.60;61.30;;;;;;1556436;74;1226;-62
2023/01/01 01:10:28;;;;;;;;;;;20.60;61.30;;;;;;1556101;74;723;-61
2023/01/01 01:12:29;;;;;;;;;;;20.60;61.30;;;;;;1568884;75;1937;-62
2023/01/01 01:14:31;;;;;;;;;;;20.60;61.30;;;;;;1565319;74;742;-62
2023/01/01 01:16:34;;;;;;;;;;;20.60;61.30;;;;;;1560783;75;1531;-62
2023/01/01 01:18:36;;;;;;;;;;;20.60;61.20;;;;;;1574326;74;1172;-62
2023/01/01 01:20:37;;;;;;;;;;;20.60;61.20;;;;;;1562300;75;828;-62
2023/01/01 01:22:39;;;;;;;;;;;20.60;61.20;;;;;;1567220;74;747;-62
2023/01/01 01:24:41;;;;;;;;;;;20.60;61.20;;;;;;1563426;75;726;-61
2023/01/01 01:26:43;;;;;;;;;;;20.60;61.20;;;;;;1569310;74;774;-62
2023/01/01 01:28:51;;;;;;;;;;;20.60;61.30;;;;;;1604093;72;1566;-62
2023/01/01 01:30:53;;;;;;;;;;;20.60;61.20;;;;;;1545981;75;709;-62
2023/01/01 01:32:55;;;;;;;;;;;20.60;61.20;;;;;;1560728;74;797;-62
2023/01/01 01:34:56;;;;;;;;;;;20.60;61.20;;;;;;1562654;75;772;-63
2023/01/01 01:36:58;;;;;;;;;;;20.60;61.20;;;;;;1546856;75;726;-62
2023/01/01 01:39:00;;;;;;;;;;;20.60;61.20;;;;;;1557174;74;1183;-62
2023/01/01 01:41:02;;;;;;;;;;;20.60;61.10;;;;;;1546220;75;723;-62
2023/01/01 01:43:05;;;;;;;;;;;20.60;61.10;;;;;;1559651;75;1500;-62
2023/01/01 01:45:08;;;;;;;;;;;20.60;61.20;;;;;;1564052;75;731;-62
2023/01/01 01:47:26;;;;;;;;;;;20.60;61.20;;;;;;1526037;76;1930;-62
2023/01/01 01:49:28;;;;;;;;;;;20.60;61.10;;;;;;1555516;74;1138;-62
2023/01/01 01:51:34;;;;;;;;;;;20.60;61.10;;;;;;1536714;76;729;-62
2023/01/01 01:53:37;;;;;;;;;;;20.60;61.10;;;;;;1568864;74;802;-62
2023/01/01 01:55:40;;;;;;;;;;;20.60;61.10;;;;;;1561255;74;609;-62
2023/01/01 01:57:42;;;;;;;;;;;20.60;61.00;;;;;;1538231;74;1527;-62
2023/01/01 01:59:44;;;;;;;;;;;20.60;61.10;;;;;;1559183;74;1146;-62
2023/01/01 02:01:46;;;;;;;;;;;20.60;61.00;;;;;;1573729;75;715;-62
2023/01/01 02:03:53;;;;;;;;;;;20.60;61.00;;;;;;1575008;74;766;-62
2023/01/01 02:05:54;;;;;;;;;;;20.60;61.00;;;;;;1553776;75;741;-62
2023/01/01 02:07:57;;;;;;;;;;;20.60;61.00;;;;;;1548986;74;1944;-62
2023/01/01 02:09:59;;;;;;;;;;;20.60;61.00;;;;;;1567905;75;1136;-62
2023/01/01 02:12:01;;;;;;;;;;;20.60;61.00;;;;;;1559302;74;1361;-62
2023/01/01 02:14:03;;;;;;;;;;;20.50;61.00;;;;;;1554050;75;764;-62
2023/01/01 02:16:07;;;;;;;;;;;20.50;61.00;;;;;;1549484;75;779;-62
2023/01/01 02:18:13;;;;;;;;;;;20.60;61.00;;;;;;1553188;75;764;-62
2023/01/01 02:20:35;;;;;;;;;;;20.60;61.00;;;;;;1556332;73;1134;-62
2023/01/01 02:22:38;;;;;;;;;;;20.60;61.00;;;;;;1564899;75;695;-62
2023/01/01 02:24:45;;;;;;;;;;;20.50;60.90;;;;;;1547835;74;780;-62
2023/01/01 02:26:51;;;;;;;;;;;20.60;60.90;;;;;;1557445;75;1922;-62
2023/01/01 02:29:03;;;;;;;;;;;20.50;61.00;;;;;;1540640;75;1939;-62
2023/01/01 02:31:05;;;;;;;;;;;20.60;61.00;;;;;;1553889;75;1811;-62
2023/01/01 02:33:10;;;;;;;;;;;20.50;60.90;;;;;;1540640;75;788;-62
2023/01/01 02:37:33;;;;;;;;;;;20.50;61.00;;;;;;1552505;75;1673;-63
2023/01/01 02:39:36;;;;;;;;;;;20.50;60.90;;;;;;1551961;75;1565;-62
2023/01/01 02:41:43;;;;;;;;;;;20.50;60.90;;;;;;1556434;75;764;-62
2023/01/01 02:43:45;;;;;;;;;;;20.50;60.90;;;;;;1541356;75;743;-62
2023/01/01 02:45:46;;;;;;;;;;;20.50;60.90;;;;;;1536494;75;788;-60
2023/01/01 02:47:48;;;;;;;;;;;20.50;60.90;;;;;;1548126;75;1929;-60
2023/01/01 02:49:58;;;;;;;;;;;20.50;60.90;;;;;;1554350;75;1105;-60
2023/01/01 02:52:04;;;;;;;;;;;20.50;60.90;;;;;;1550554;75;823;-59
2023/01/01 02:54:20;;;;;;;;;;;20.50;60.90;;;;;;1562976;75;1551;-60
2023/01/01 02:56:33;;;;;;;;;;;20.60;60.80;;;;;;1558861;75;725;-60
2023/01/01 03:01:06;;;;;;;;;;;20.50;60.80;;;;;;1536511;75;1730;-62
2023/01/01 03:03:25;;;;;;;;;;;20.60;60.80;;;;;;1533654;75;2069;-62
2023/01/01 03:05:29;;;;;;;;;;;20.50;60.90;;;;;;1546620;75;943;-62
2023/01/01 03:07:49;;;;;;;;;;;20.50;60.90;;;;;;1549122;75;1941;-62
2023/01/01 03:09:55;;;;;;;;;;;20.50;60.80;;;;;;1543458;75;1111;-62
2023/01/01 03:12:08;;;;;;;;;;;20.50;60.90;;;;;;1552025;75;750;-62
2023/01/01 03:14:14;;;;;;;;;;;20.50;60.90;;;;;;1552869;75;2070;-62
2023/01/01 03:16:17;;;;;;;;;;;20.50;60.90;;;;;;1549865;75;2015;-61
2023/01/01 03:18:27;;;;;;;;;;;20.50;60.80;;;;;;1541253;75;727;-60
2023/01/01 03:20:30;;;;;;;;;;;20.50;60.80;;;;;;1518628;75;1211;-61
2023/01/01 03:22:33;;;;;;;;;;;20.50;60.80;;;;;;1559384;75;1566;-61
2023/01/01 03:24:39;;;;;;;;;;;20.50;60.80;;;;;;1552506;75;722;-60
2023/01/01 03:26:41;;;;;;;;;;;20.50;60.80;;;;;;1529647;75;797;-61
2023/01/01 03:28:44;;;;;;;;;;;20.50;60.80;;;;;;1558162;75;1957;-62
2023/01/01 03:30:46;;;;;;;;;;;20.50;60.80;;;;;;1581840;75;678;-60
2023/01/01 03:33:06;;;;;;;;;;;20.50;60.80;;;;;;1558500;75;771;-60
2023/01/01 03:35:08;;;;;;;;;;;20.50;60.70;;;;;;1565794;75;650;-60
2023/01/01 03:37:12;;;;;;;;;;;20.50;60.70;;;;;;1563737;75;1478;-61
2023/01/01 03:39:15;;;;;;;;;;;20.50;60.70;;;;;;1567003;75;1983;-61
2023/01/01 03:41:22;;;;;;;;;;;20.50;60.70;;;;;;1557325;75;1924;-60
2023/01/01 03:43:42;;;;;;;;;;;20.50;60.70;;;;;;1553141;75;706;-62
2023/01/01 03:45:44;;;;;;;;;;;20.50;60.80;;;;;;1573251;75;842;-61
2023/01/01 03:47:46;;;;;;;;;;;20.50;60.60;;;;;;1577461;75;1950;-61
2023/01/01 03:49:48;;;;;;;;;;;20.50;60.60;;;;;;1573118;75;1677;-60
2023/01/01 03:51:56;;;;;;;;;;;20.50;60.60;;;;;;1555592;75;717;-61
2023/01/01 03:53:59;;;;;;;;;;;20.50;60.60;;;;;;1572786;75;729;-60
2023/01/01 03:56:05;;;;;;;;;;;20.50;60.60;;;;;;1556536;75;687;-62
2023/01/01 03:58:12;;;;;;;;;;;20.50;60.60;;;;;;1569388;75;743;-60
2023/01/01 04:00:16;;;;;;;;;;;20.50;60.50;;;;;;1557310;75;1104;-61
2023/01/01 04:02:19;;;;;;;;;;;20.50;60.50;;;;;;1557130;74;868;-61
2023/01/01 04:04:20;;;;;;;;;;;20.50;60.50;;;;;;1548195;75;1523;-61
2023/01/01 04:06:22;;;;;;;;;;;20.50;60.50;;;;;;1565201;75;667;-61
2023/01/01 04:08:24;;;;;;;;;;;20.50;60.50;;;;;;1578887;75;1929;-61
2023/01/01 04:10:26;;;;;;;;;;;20.50;60.50;;;;;;1566082;75;788;-63
2023/01/01 04:12:28;;;;;;;;;;;20.50;60.50;;;;;;1539204;76;733;-61
2023/01/01 04:14:37;;;;;;;;;;;20.40;60.30;;;;;;1518813;76;746;-60
2023/01/01 04:16:39;;;;;;;;;;;20.50;60.50;;;;;;1550101;75;967;-61
2023/01/01 04:18:41;;;;;;;;;;;20.50;60.40;;;;;;1559975;75;1608;-61
2023/01/01 04:20:43;;;;;;;;;;;20.50;60.40;;;;;;1576061;75;817;-62
2023/01/01 04:22:45;;;;;;;;;;;20.50;60.40;;;;;;1548396;73;3076;-56
2023/01/01 04:24:46;;;;;;;;;;;20.50;60.40;;;;;;1519702;76;669;-57
2023/01/01 04:26:49;;;;;;;;;;;20.50;60.40;;;;;;1533794;76;765;-58
2023/01/01 04:28:51;;;;;;;;;;;20.50;60.40;;;;;;1534750;76;1948;-59
2023/01/01 04:30:52;;;;;;;;;;;20.50;60.30;;;;;;1509280;77;1086;-57
2023/01/01 04:32:55;;;;;;;;;;;20.50;60.30;;;;;;1503757;78;1485;-59
2023/01/01 04:34:57;;;;;;;;;;;20.50;60.30;;;;;;1509158;77;759;-58
2023/01/01 04:36:59;;;;;;;;;;;20.50;60.30;;;;;;1516392;77;718;-57
2023/01/01 04:39:01;;;;;;;;;;;20.50;60.30;;;;;;1518078;76;1134;-59
2023/01/01 04:41:03;;;;;;;;;;;20.50;60.30;;;;;;1510498;77;707;-58
2023/01/01 04:43:05;;;;;;;;;;;20.50;60.20;;;;;;1512360;77;681;-59
2023/01/01 04:45:07;;;;;;;;;;;20.50;60.20;;;;;;1520385;76;733;-59
2023/01/01 04:47:09;;;;;;;;;;;20.50;60.20;;;;;;1517890;77;1440;-58
2023/01/01 04:49:11;;;;;;;;;;;20.50;60.20;;;;;;1499758;77;1938;-57
2023/01/01 04:51:13;;;;;;;;;;;20.50;60.20;;;;;;1507406;77;721;-58
2023/01/01 04:53:15;;;;;;;;;;;20.50;60.20;;;;;;1506334;77;713;-60
2023/01/01 04:55:17;;;;;;;;;;;20.50;60.20;;;;;;1512885;77;782;-57
2023/01/01 04:57:19;;;;;;;;;;;20.50;60.20;;;;;;1506815;77;698;-56
2023/01/01 04:59:20;;;;;;;;;;;20.50;60.20;;;;;;1500741;77;1127;-57
2023/01/01 05:01:23;;;;;;;;;;;20.40;60.10;;;;;;1497318;77;1603;-58
2023/01/01 05:03:25;;;;;;;;;;;20.50;60.10;;;;;;1510325;77;657;-58
2023/01/01 05:05:27;;;;;;;;;;;20.50;60.20;;;;;;1503638;77;784;-58
2023/01/01 05:07:28;;;;;;;;;;;20.50;60.10;;;;;;1495518;77;599;-57
2023/01/01 05:09:30;;;;;;;;;;;20.50;60.10;;;;;;1502887;77;1938;-56
2023/01/01 05:11:32;;;;;;;;;;;20.50;60.10;;;;;;1492605;77;747;-57
2023/01/01 05:13:35;;;;;;;;;;;20.50;60.10;;;;;;1512798;77;646;-58
2023/01/01 05:15:36;;;;;;;;;;;20.50;60.10;;;;;;1508404;77;1337;-59
2023/01/01 05:17:38;;;;;;;;;;;20.50;60.10;;;;;;1503030;77;759;-59
2023/01/01 05:19:40;;;;;;;;;;;20.50;60.10;;;;;;1510023;77;1150;-59
2023/01/01 05:21:44;;;;;;;;;;;20.50;60.10;;;;;;1511841;77;721;-57
2023/01/01 05:23:46;;;;;;;;;;;20.50;60.10;;;;;;1503153;77;1913;-58
2023/01/01 05:25:48;;;;;;;;;;;20.50;60.10;;;;;;1505451;77;719;-59
2023/01/01 05:27:50;;;;;;;;;;;20.50;60.10;;;;;;1494992;77;732;-59
2023/01/01 05:29:52;;;;;;;;;;;20.50;60.10;;;;;;1514002;76;1952;-58
2023/01/01 05:31:54;;;;;;;;;;;20.50;60.00;;;;;;1491523;77;742;-58
2023/01/01 05:33:56;;;;;;;;;;;20.50;60.10;;;;;;1505619;77;711;-58
2023/01/01 05:35:58;;;;;;;;;;;20.40;59.90;;;;;;1512320;77;758;-59
2023/01/01 05:38:00;;;;;;;;;;;20.50;60.00;;;;;;1499228;77;684;-57
2023/01/01 05:40:01;;;;;;;;;;;20.50;60.00;;;;;;1515502;76;1133;-58
2023/01/01 05:42:03;;;;;;;;;;;20.50;60.00;;;;;;1511773;78;1481;-56
2023/01/01 05:44:06;;;;;;;;;;;20.50;59.90;;;;;;1521912;77;941;-57
2023/01/01 05:46:09;;;;;;;;;;;20.50;59.90;;;;;;1514650;77;721;-57
2023/01/01 05:48:11;;;;;;;;;;;20.50;59.90;;;;;;1509305;77;746;-56
2023/01/01 05:50:13;;;;;;;;;;;20.50;59.90;;;;;;1516538;76;1947;-58
2023/01/01 05:52:15;;;;;;;;;;;20.50;59.90;;;;;;1501541;77;726;-58
2023/01/01 05:54:17;;;;;;;;;;;20.50;59.80;;;;;;1505155;77;795;-58
2023/01/01 05:56:19;;;;;;;;;;;20.50;59.80;;;;;;1501200;77;1469;-57
2023/01/01 05:58:20;;;;;;;;;;;20.50;59.80;;;;;;1501746;77;718;-57
2023/01/01 06:00:23;;;;;;;;;;;20.40;59.70;;;;;;1501204;77;771;-57
2023/01/01 06:02:24;;;;;;;;;;;20.50;59.80;;;;;;1509253;77;821;-57
2023/01/01 06:04:26;;;;;;;;;;;20.40;59.70;;;;;;1515728;77;712;-58
2023/01/01 06:06:29;;;;;;;;;;;20.50;59.80;;;;;;1507757;77;725;-57
2023/01/01 06:08:31;;;;;;;;;;;20.50;59.80;;;;;;1509032;77;1951;-58
2023/01/01 06:10:33;;;;;;;;;;;20.50;59.80;;;;;;1491603;77;1438;-60
2023/01/01 06:12:35;;;;;;;;;;;20.40;59.70;;;;;;1505619;77;730;-58
2023/01/01 06:14:37;;;;;;;;;;;20.40;59.60;;;;;;1503230;77;696;-57
2023/01/01 06:16:38;;;;;;;;;;;20.50;59.70;;;;;;1502285;77;716;-58
2023/01/01 06:18:40;;;;;;;;;;;20.40;59.60;;;;;;1508332;77;1156;-57
2023/01/01 06:20:42;;;;;;;;;;;20.50;59.70;;;;;;1511113;77;779;-58
2023/01/01 06:22:44;;;;;;;;;;;20.50;59.70;;;;;;1498583;77;753;-58
2023/01/01 06:24:46;;;;;;;;;;;20.50;59.70;;;;;;1500103;77;1402;-59
2023/01/01 06:26:48;;;;;;;;;;;20.40;59.60;;;;;;1503879;77;782;-58
2023/01/01 06:28:50;;;;;;;;;;;20.50;59.60;;;;;;1510948;76;1961;-58
2023/01/01 06:30:51;;;;;;;;;;;20.50;59.60;;;;;;1500621;77;684;-57
2023/01/01 06:32:53;;;;;;;;;;;20.50;59.60;;;;;;1506101;77;743;-56
2023/01/01 06:34:55;;;;;;;;;;;20.50;59.60;;;;;;1500319;77;788;-56
2023/01/01 06:36:57;;;;;;;;;;;20.50;59.60;;;;;;1509383;77;667;-57
2023/01/01 06:38:59;;;;;;;;;;;20.50;59.60;;;;;;1508562;77;1437;-58
2023/01/01 06:41:02;;;;;;;;;;;20.40;59.50;;;;;;1510539;77;719;-58
2023/01/01 06:43:03;;;;;;;;;;;20.40;59.50;;;;;;1504842;77;637;-59
2023/01/01 06:45:06;;;;;;;;;;;20.50;59.50;;;;;;1520904;77;735;-58
2023/01/01 06:47:08;;;;;;;;;;;20.40;59.50;;;;;;1517456;77;704;-58
2023/01/01 06:49:10;;;;;;;;;;;20.40;59.50;;;;;;1515540;76;1953;-57
2023/01/01 06:51:19;;;;;;;;;;;20.40;59.40;;;;;;1502840;77;771;-58
2023/01/01 06:53:22;;;;;;;;;;;20.40;59.40;;;;;;1502051;77;1447;-56
2023/01/01 06:55:24;;;;;;;;;;;20.50;59.50;;;;;;1496819;77;799;-58
2023/01/01 06:57:26;;;;;;;;;;;20.50;59.40;;;;;;1512393;78;687;-58
2023/01/01 06:59:28;;;;;;;;;;;20.50;59.40;;;;;;1506712;78;1119;-59
2023/01/01 07:01:30;;;;;;;;;;;20.50;59.40;;;;;;1508981;77;738;-56
2023/01/01 07:03:32;;;;;;;;;;;20.40;59.30;;;;;;1500260;77;760;-57
2023/01/01 07:05:34;;;;;;;;;;;20.40;59.40;;;;;;1518847;77;751;-57
2023/01/01 07:07:36;;;;;;;;;;;20.50;59.50;;;;;;1502161;77;1516;-57
2023/01/01 07:09:38;;;;;;;;;;;20.50;59.40;;;;;;1493346;78;1957;-59
2023/01/01 07:11:40;;;;;;;;;;;20.40;59.30;;;;;;1502051;77;828;-59
2023/01/01 07:13:42;;;;;;;;;;;20.40;59.30;;;;;;1495548;77;712;-57
2023/01/01 07:15:44;;;;;;;;;;;20.40;59.30;;;;;;1511132;77;774;-57
2023/01/01 07:17:46;;;;;;;;;;;20.50;59.40;;;;;;1515910;76;684;-59
2023/01/01 07:19:48;;;;;;;;;;;20.50;59.40;;;;;;1518773;76;1139;-59
2023/01/01 07:21:53;;;;;;;;;;;20.40;59.30;;;;;;1498392;77;1482;-57
2023/01/01 07:23:55;;;;;;;;;;;20.50;59.40;;;;;;1490460;77;915;-60
2023/01/01 07:25:57;;;;;;;;;;;20.50;59.40;;;;;;1516805;77;707;-57
2023/01/01 07:27:59;;;;;;;;;;;20.50;59.30;;;;;;1504292;77;727;-58
2023/01/01 07:30:01;;;;;;;;;;;20.40;59.20;;;;;;1506350;77;1947;-58
2023/01/01 07:32:03;;;;;;;;;;;20.40;59.30;;;;;;1517411;77;793;-58
2023/01/01 07:34:05;;;;;;;;;;;20.50;59.30;;;;;;1513550;77;729;-57
2023/01/01 07:36:08;;;;;;;;;;;20.40;59.20;;;;;;1496750;77;1529;-57
2023/01/01 07:38:09;;;;;;;;;;;20.40;59.20;;;;;;1512005;77;685;-58
2023/01/01 07:40:11;;;;;;;;;;;20.40;59.20;;;;;;1522745;76;1094;-56
2023/01/01 07:42:13;;;;;;;;;;;20.40;59.20;;;;;;1504919;77;715;-57
2023/01/01 07:44:15;;;;;;;;;;;20.40;59.20;;;;;;1497988;77;766;-59
2023/01/01 07:46:21;;;;;;;;;;;20.40;59.20;;;;;;1511000;77;737;-59
2023/01/01 07:48:20;;;;;;;;;;;20.40;59.20;;;;;;1508943;77;1240;-57
2023/01/01 07:50:23;;;;;;;;;;;20.50;59.30;;;;;;1503583;77;1945;-58
2023/01/01 07:52:25;;;;;;;;;;;20.50;59.20;;;;;;1504001;78;749;-58
2023/01/01 07:54:26;;;;;;;;;;;20.40;59.10;;;;;;1513905;77;692;-57
2023/01/01 07:56:28;;;;;;;;;;;20.40;59.10;;;;;;1494632;77;733;-57
2023/01/01 07:58:30;;;;;;;;;;;20.40;59.10;;;;;;1500625;77;1158;-60
2023/01/01 08:00:32;;;;;;;;;;;20.40;59.10;;;;;;1506792;77;766;-59
2023/01/01 08:02:34;;;;;;;;;;;20.50;59.10;;;;;;1509454;77;1438;-58
2023/01/01 08:04:36;;;;;;;;;;;20.40;59.10;;;;;;1523611;77;825;-58
2023/01/01 08:06:38;;;;;;;;;;;20.40;59.10;;;;;;1506557;77;722;-57
2023/01/01 08:08:40;;;;;;;;;;;20.40;59.00;;;;;;1516393;77;1150;-58
2023/01/01 08:10:42;;;;;;;;;;;20.40;59.00;;;;;;1499548;77;1911;-57
2023/01/01 08:12:43;;;;;;;;;;;20.40;59.00;;;;;;1497727;78;691;-60
2023/01/01 08:14:45;;;;;;;;;;;20.40;59.00;;;;;;1496748;77;664;-56
2023/01/01 08:16:47;;;;;;;;;;;20.50;59.10;;;;;;1502924;77;1386;-58
2023/01/01 08:18:49;;;;;;;;;;;20.40;59.00;;;;;;1506646;76;1149;-57
2023/01/01 08:20:52;;;;;;;;;;;20.40;59.00;;;;;;1507161;77;741;-57
2023/01/01 08:22:53;;;;;;;;;;;20.50;59.00;;;;;;1509248;77;923;-58
2023/01/01 08:24:55;;;;;;;;;;;20.40;59.00;;;;;;1496542;77;777;-56
2023/01/01 08:26:57;;;;;;;;;;;20.40;59.00;;;;;;1511047;77;956;-58
2023/01/01 08:28:59;;;;;;;;;;;20.40;58.90;;;;;;1514682;77;1182;-57
2023/01/01 08:31:01;;;;;;;;;;;20.40;59.00;;;;;;1481086;78;1927;-59
2023/01/01 08:33:03;;;;;;;;;;;20.40;58.90;;;;;;1502519;77;796;-59
2023/01/01 08:35:05;;;;;;;;;;;20.40;58.90;;;;;;1492884;77;782;-59
2023/01/01 08:37:09;;;;;;;;;;;20.40;58.90;;;;;;1506228;78;715;-59
2023/01/01 08:39:10;;;;;;;;;;;20.50;58.90;;;;;;1514118;76;1862;-58
2023/01/01 08:41:12;;;;;;;;;;;20.40;58.90;;;;;;1496983;77;560;-58
2023/01/01 08:43:14;;;;;;;;;;;20.40;58.90;;;;;;1504780;77;784;-57
2023/01/01 08:45:16;;;;;;;;;;;20.40;58.90;;;;;;1514215;77;1468;-59
2023/01/01 08:47:19;;;;;;;;;;;20.40;58.80;;;;;;1516953;77;765;-59
2023/01/01 08:49:20;;;;;;;;;;;20.40;58.80;;;;;;1512766;77;1128;-57
2023/01/01 08:51:22;;;;;;;;;;;20.40;58.80;;;;;;1508772;77;1936;-58
2023/01/01 08:53:24;;;;;;;;;;;20.50;58.80;;;;;;1498935;77;1107;-59
2023/01/01 08:55:26;;;;;;;;;;;20.50;58.80;;;;;;1502546;77;711;-56
2023/01/01 08:57:30;;;;;;;;;;;20.50;58.70;;;;;;1506456;77;749;-56
2023/01/01 08:59:32;;;;;;;;;;;20.40;58.70;;;;;;1500388;77;1509;-57
2023/01/01 09:01:34;;;;;;;;;;;20.50;58.80;;;;;;1497256;77;601;-57
2023/01/01 09:03:36;;;;;;;;;;;20.50;58.70;;;;;;1508545;77;788;-57
2023/01/01 09:05:38;;;;;;;;;;;20.40;58.60;;;;;;1506529;77;747;-59
2023/01/01 09:07:40;;;;;;;;;;;20.50;58.60;;;;;;1505789;77;782;-58
2023/01/01 09:09:42;;;;;;;;;;;20.50;58.70;;;;;;1494374;77;1937;-58
2023/01/01 09:11:51;;;;;;;;;;;20.50;58.70;;;;;;1501891;78;773;-59
2023/01/01 09:13:53;;;;;;;;;;;20.50;58.60;;;;;;1501413;77;1498;-58
2023/01/01 09:15:55;;;;;;;;;;;20.50;58.60;;;;;;1518045;77;772;-56
2023/01/01 09:17:57;;;;;;;;;;;20.50;58.60;;;;;;1500549;77;778;-57
2023/01/01 09:19:59;;;;;;;;;;;20.40;58.50;;;;;;1513654;77;1109;-57
2023/01/01 09:22:01;;;;;;;;;;;20.40;58.50;;;;;;1495073;78;762;-58
2023/01/01 09:24:03;;;;;;;;;;;20.40;58.50;;;;;;1500379;77;833;-58
2023/01/01 09:26:06;;;;;;;;;;;20.50;58.50;;;;;;1522639;77;831;-58
2023/01/01 09:28:08;;;;;;;;;;;20.40;58.50;;;;;;1511448;77;1496;-58
2023/01/01 09:30:10;;;;;;;;;;;20.50;58.50;;;;;;1515092;76;1954;-56
2023/01/01 09:32:12;;;;;;;;;;;20.50;58.50;;;;;;1502870;77;776;-55
2023/01/01 09:34:15;;;;;;;;;;;20.50;58.50;;;;;;1501539;77;745;-58
2023/01/01 09:36:29;;;;;;;;;;;20.50;58.50;;;;;;1508484;77;682;-58
2023/01/01 09:38:31;;;;;;;;;;;20.50;58.50;;;;;;1514804;76;1130;-57
2023/01/01 09:40:41;;;;;;;;;;;20.50;58.40;;;;;;1504846;77;733;-58
2023/01/01 09:42:44;;;;;;;;;;;20.50;58.40;;;;;;1504791;77;1504;-59
2023/01/01 09:44:53;;;;;;;;;;;20.50;58.40;;;;;;1483611;77;1711;-57
2023/01/01 09:46:56;;;;;;;;;;;20.50;58.40;;;;;;1498354;77;699;-57
2023/01/01 09:49:00;;;;;;;;;;;20.50;58.40;;;;;;1476726;79;1415;-57
2023/01/01 09:51:03;;;;;;;;;;;20.50;58.30;;;;;;1511755;77;1937;-59
2023/01/01 09:53:06;;;;;;;;;;;20.50;58.20;;;;;;1504919;77;713;-58
2023/01/01 09:55:12;;;;;;;;;;;20.50;58.20;;;;;;1491815;77;1703;-59
2023/01/01 09:57:14;;;;;;;;;;;20.60;58.20;;;;;;1521308;77;846;-58
2023/01/01 09:59:16;;;;;;;;;;;20.60;58.10;;;;;;1517661;76;1149;-59
2023/01/01 10:01:35;;;;;;;;;;;20.60;58.10;;;;;;1503572;77;715;-57
2023/01/01 10:03:44;;;;;;;;;;;20.50;57.50;;;;;;1505282;77;1831;-58
2023/01/01 10:06:04;;;;;;;;;;;20.60;58.00;;;;;;1506807;77;727;-59
2023/01/01 10:08:24;;;;;;;;;;;20.60;58.00;;;;;;1495819;78;775;-59
2023/01/01 10:10:37;;;;;;;;;;;20.50;57.40;;;;;;1502735;77;1941;-57
2023/01/01 10:12:46;;;;;;;;;;;20.50;57.40;;;;;;1498781;77;714;-58
2023/01/01 10:14:49;;;;;;;;;;;20.60;57.40;;;;;;1504667;77;1799;-57
2023/01/01 10:16:52;;;;;;;;;;;20.60;57.40;;;;;;1511024;77;765;-58
2023/01/01 10:18:55;;;;;;;;;;;20.50;57.40;;;;;;1504700;78;1140;-59
2023/01/01 10:20:58;;;;;;;;;;;20.50;57.30;;;;;;1495340;77;730;-57
2023/01/01 10:23:01;;;;;;;;;;;20.60;57.10;;;;;;1533522;73;220381;-72
2023/01/01 10:25:10;;;;;;;;;;;20.60;57.00;;;;;;1561455;74;1579;-73
2023/01/01 10:27:14;;;;;;;;;;;20.50;57.10;;;;;;1552038;75;1148;-73
2023/01/01 10:29:17;;;;;;;;;;;20.60;57.10;;;;;;1593032;74;1407;-73
2023/01/01 10:31:20;;;;;;;;;;;20.60;57.00;;;;;;1588976;74;1925;-74
2023/01/01 10:33:21;;;;;;;;;;;20.60;56.90;;;;;;1572449;74;1183;-73
2023/01/01 10:35:29;;;;;;;;;;;20.60;56.90;;;;;;1582897;75;729;-74
2023/01/01 10:37:30;;;;;;;;;;;20.60;56.80;;;;;;1565487;75;1635;-72
2023/01/01 10:39:32;;;;;;;;;;;20.60;56.80;;;;;;1571269;75;1630;-73
2023/01/01 10:41:34;;;;;;;;;;;20.60;56.80;;;;;;1575942;73;739;-73
2023/01/01 10:43:36;;;;;;;;;;;20.60;56.60;;;;;;1573052;73;1119;-73
2023/01/01 10:45:39;;;;;;;;;;;20.60;56.60;;;;;;1577835;75;722;-72
2023/01/01 10:47:41;;;;;;;;;;;20.60;56.60;;;;;;1570414;75;710;-72
2023/01/01 10:49:56;;;;;;;;;;;20.70;56.50;;;;;;1554176;76;1027;-74
2023/01/01 10:51:58;;;;;;;;;;;20.60;56.40;;;;;;1582304;75;1929;-73
2023/01/01 10:54:00;;;;;;;;;;;20.70;56.40;;;;;;1563987;75;1201;-72
2023/01/01 10:56:06;;;;;;;;;;;20.70;56.40;;;;;;1581399;73;690;-72
2023/01/01 10:58:10;;;;;;;;;;;20.70;56.40;;;;;;1569612;75;718;-72
2023/01/01 11:00:13;;;;;;;;;;;20.70;56.30;;;;;;1577143;75;1060;-73
2023/01/01 11:02:19;;;;;;;;;;;20.70;56.20;;;;;;1581637;73;1137;-72
2023/01/01 11:04:21;;;;;;;;;;;20.70;56.20;;;;;;1570464;75;694;-72
2023/01/01 11:06:27;;;;;;;;;;;20.70;56.20;;;;;;1577370;75;1550;-73
2023/01/01 11:08:29;;;;;;;;;;;20.70;56.10;;;;;;1571796;75;739;-73
2023/01/01 11:10:31;;;;;;;;;;;20.70;56.00;;;;;;1585844;73;1934;-72
2023/01/01 11:12:36;;;;;;;;;;;20.70;56.10;;;;;;1577586;73;1134;-72
2023/01/01 11:14:38;;;;;;;;;;;20.70;56.10;;;;;;1576706;75;724;-73
2023/01/01 11:16:40;;;;;;;;;;;20.70;56.00;;;;;;1578393;75;748;-73
2023/01/01 11:18:42;;;;;;;;;;;20.70;56.00;;;;;;1582338;75;701;-74
2023/01/01 11:20:44;;;;;;;;;;;20.70;56.00;;;;;;1572673;75;1601;-73
2023/01/01 11:22:50;;;;;;;;;;;20.70;55.90;;;;;;1574848;75;1141;-73
2023/01/01 11:25:01;;;;;;;;;;;20.70;55.80;;;;;;1589806;73;654;-73
2023/01/01 11:27:21;;;;;;;;;;;20.70;55.80;;;;;;1569877;75;720;-73
2023/01/01 11:29:27;;;;;;;;;;;20.70;56.00;;;;;;1564177;75;743;-75
2023/01/01 11:31:30;;;;;;;;;;;20.70;55.90;;;;;;1569415;75;1932;-73
2023/01/01 11:33:33;;;;;;;;;;;20.80;55.90;;;;;;1566614;75;1517;-72
2023/01/01 11:35:36;;;;;;;;;;;20.80;55.70;;;;;;1570015;75;709;-72
2023/01/01 11:37:38;;;;;;;;;;;20.80;55.60;;;;;;1567683;75;767;-73
2023/01/01 11:39:44;;;;;;;;;;;20.70;55.70;;;;;;1589031;73;735;-73
2023/01/01 11:41:47;;;;;;;;;;;20.70;55.70;;;;;;1564695;75;1002;-73
2023/01/01 11:43:49;;;;;;;;;;;20.70;55.70;;;;;;1571513;73;1130;-73
2023/01/01 11:45:52;;;;;;;;;;;20.80;55.70;;;;;;1584156;75;725;-73
2023/01/01 11:47:55;;;;;;;;;;;20.80;55.70;;;;;;1570493;75;1546;-73
2023/01/01 11:49:59;;;;;;;;;;;20.80;55.50;;;;;;1569783;75;719;-72
2023/01/01 11:52:01;;;;;;;;;;;20.80;55.60;;;;;;1568464;75;1943;-72
2023/01/01 11:54:10;;;;;;;;;;;20.80;55.60;;;;;;1587174;73;1225;-73
2023/01/01 11:56:15;;;;;;;;;;;20.80;55.70;;;;;;1576517;75;623;-73
2023/01/01 11:58:18;;;;;;;;;;;20.80;55.60;;;;;;1579304;75;694;-73
2023/01/01 12:00:19;;;;;;;;;;;20.90;55.70;;;;;;1581999;75;805;-73
2023/01/01 12:02:23;;;;;;;;;;;20.80;55.50;;;;;;1582715;73;1548;-73
2023/01/01 12:04:29;;;;;;;;;;;20.80;55.50;;;;;;1578643;75;1043;-72
2023/01/01 12:06:34;;;;;;;;;;;20.80;55.50;;;;;;1584674;75;741;-72
2023/01/01 12:08:40;;;;;;;;;;;20.80;55.40;;;;;;1569845;75;733;-73
2023/01/01 12:10:52;;;;;;;;;;;20.80;55.40;;;;;;1581708;75;1957;-73
2023/01/01 12:12:57;;;;;;;;;;;20.80;55.30;;;;;;1580827;73;1114;-73
2023/01/01 12:15:04;;;;;;;;;;;20.80;55.50;;;;;;1583892;75;723;-72
2023/01/01 12:17:10;;;;;;;;;;;20.80;55.50;;;;;;1571915;75;1619;-73
2023/01/01 12:19:26;;;;;;;;;;;20.80;55.60;;;;;;1578057;75;730;-73
2023/01/01 12:21:28;;;;;;;;;;;20.80;55.40;;;;;;1574184;75;694;-73
2023/01/01 12:23:30;;;;;;;;;;;20.80;55.40;;;;;;1582774;73;1119;-72